sensor_id;sensor_type;location;lat;lon;timestamp;P1;durP1;ratioP1;P2;durP2;ratioP2
53833;SDS011;39735;51.432;5.482;2023-06-10T00:01:08;19.33;;;7.67;;
53833;SDS011;39735;51.432;5.482;2023-06-10T00:03:33;12.10;;;8.27;;
53833;SDS011;39735;51.432;5.482;2023-06-10T00:05:58;14.30;;;6.60;;
53833;SDS011;39735;51.432;5.482;2023-06-10T00:08:23;7.53;;;6.13;;
53833;SDS011;39735;51.432;5.482;2023-06-10T00:10:49;10.98;;;6.63;;
53833;SDS011;39735;51.432;5.482;2023-06-10T00:13:14;22.63;;;8.55;;
53833;SDS011;39735;51.432;5.482;2023-06-10T00:15:41;19.38;;;8.75;;
53833;SDS011;39735;51.432;5.482;2023-06-10T00:18:06;34.47;;;7.43;;
53833;SDS011;39735;51.432;5.482;2023-06-10T00:20:34;11.35;;;6.75;;
53833;SDS011;39735;51.432;5.482;2023-06-10T00:23:01;13.20;;;7.97;;
53833;SDS011;39735;51.432;5.482;2023-06-10T00:25:26;17.63;;;7.65;;
53833;SDS011;39735;51.432;5.482;2023-06-10T00:27:51;14.40;;;6.73;;
53833;SDS011;39735;51.432;5.482;2023-06-10T00:30:16;14.27;;;8.00;;
53833;SDS011;39735;51.432;5.482;2023-06-10T00:32:42;10.07;;;7.40;;
53833;SDS011;39735;51.432;5.482;2023-06-10T00:35:07;13.15;;;7.97;;
53833;SDS011;39735;51.432;5.482;2023-06-10T00:37:33;11.93;;;8.77;;
53833;SDS011;39735;51.432;5.482;2023-06-10T00:40:00;10.50;;;7.93;;
53833;SDS011;39735;51.432;5.482;2023-06-10T00:42:25;16.80;;;8.55;;
53833;SDS011;39735;51.432;5.482;2023-06-10T00:44:51;10.13;;;7.30;;
53833;SDS011;39735;51.432;5.482;2023-06-10T00:47:16;14.65;;;8.57;;
53833;SDS011;39735;51.432;5.482;2023-06-10T00:49:41;20.52;;;8.57;;
53833;SDS011;39735;51.432;5.482;2023-06-10T00:52:07;11.98;;;6.97;;
53833;SDS011;39735;51.432;5.482;2023-06-10T00:54:33;10.85;;;7.15;;
53833;SDS011;39735;51.432;5.482;2023-06-10T00:57:00;16.63;;;7.55;;
53833;SDS011;39735;51.432;5.482;2023-06-10T00:59:25;27.25;;;8.82;;
53833;SDS011;39735;51.432;5.482;2023-06-10T01:01:51;12.20;;;7.72;;
53833;SDS011;39735;51.432;5.482;2023-06-10T01:04:17;18.38;;;8.85;;
53833;SDS011;39735;51.432;5.482;2023-06-10T01:11:57;27.88;;;8.38;;
53833;SDS011;39735;51.432;5.482;2023-06-10T01:14:23;20.83;;;7.95;;
53833;SDS011;39735;51.432;5.482;2023-06-10T01:16:49;15.05;;;7.05;;
53833;SDS011;39735;51.432;5.482;2023-06-10T01:19:15;11.23;;;6.78;;
53833;SDS011;39735;51.432;5.482;2023-06-10T01:21:42;18.27;;;8.48;;
53833;SDS011;39735;51.432;5.482;2023-06-10T01:24:09;16.38;;;7.22;;
53833;SDS011;39735;51.432;5.482;2023-06-10T01:26:36;21.95;;;8.55;;
53833;SDS011;39735;51.432;5.482;2023-06-10T01:29:11;17.10;;;9.15;;
53833;SDS011;39735;51.432;5.482;2023-06-10T01:32:12;11.43;;;6.13;;
53833;SDS011;39735;51.432;5.482;2023-06-10T01:34:28;12.93;;;6.78;;
53833;SDS011;39735;51.432;5.482;2023-06-10T01:36:55;11.23;;;7.85;;
53833;SDS011;39735;51.432;5.482;2023-06-10T01:39:22;14.02;;;8.30;;
53833;SDS011;39735;51.432;5.482;2023-06-10T01:41:49;18.20;;;7.53;;
53833;SDS011;39735;51.432;5.482;2023-06-10T01:44:17;27.42;;;7.03;;
53833;SDS011;39735;51.432;5.482;2023-06-10T01:46:43;12.55;;;8.25;;
53833;SDS011;39735;51.432;5.482;2023-06-10T01:49:08;15.40;;;7.23;;
53833;SDS011;39735;51.432;5.482;2023-06-10T01:51:34;12.27;;;6.70;;
53833;SDS011;39735;51.432;5.482;2023-06-10T01:53:59;11.80;;;8.15;;
53833;SDS011;39735;51.432;5.482;2023-06-10T01:56:25;13.60;;;8.65;;
53833;SDS011;39735;51.432;5.482;2023-06-10T01:58:50;16.27;;;8.47;;
53833;SDS011;39735;51.432;5.482;2023-06-10T02:01:15;8.15;;;7.38;;
53833;SDS011;39735;51.432;5.482;2023-06-10T02:03:41;24.42;;;7.70;;
53833;SDS011;39735;51.432;5.482;2023-06-10T02:06:06;17.52;;;6.63;;
53833;SDS011;39735;51.432;5.482;2023-06-10T02:08:31;9.05;;;6.72;;
53833;SDS011;39735;51.432;5.482;2023-06-10T02:10:56;20.47;;;7.57;;
53833;SDS011;39735;51.432;5.482;2023-06-10T02:13:22;23.25;;;8.65;;
53833;SDS011;39735;51.432;5.482;2023-06-10T02:15:47;24.97;;;9.50;;
53833;SDS011;39735;51.432;5.482;2023-06-10T02:18:12;9.75;;;8.13;;
53833;SDS011;39735;51.432;5.482;2023-06-10T02:20:38;39.78;;;6.68;;
53833;SDS011;39735;51.432;5.482;2023-06-10T02:23:03;16.73;;;7.25;;
53833;SDS011;39735;51.432;5.482;2023-06-10T02:25:28;10.05;;;7.40;;
53833;SDS011;39735;51.432;5.482;2023-06-10T02:27:53;16.67;;;7.23;;
53833;SDS011;39735;51.432;5.482;2023-06-10T02:30:19;15.30;;;7.23;;
53833;SDS011;39735;51.432;5.482;2023-06-10T02:32:44;9.93;;;7.45;;
53833;SDS011;39735;51.432;5.482;2023-06-10T02:35:16;12.88;;;8.07;;
53833;SDS011;39735;51.432;5.482;2023-06-10T02:37:42;15.00;;;7.05;;
53833;SDS011;39735;51.432;5.482;2023-06-10T02:40:07;20.20;;;6.78;;
53833;SDS011;39735;51.432;5.482;2023-06-10T02:42:33;15.52;;;7.43;;
53833;SDS011;39735;51.432;5.482;2023-06-10T02:44:58;29.27;;;9.27;;
53833;SDS011;39735;51.432;5.482;2023-06-10T02:47:24;17.55;;;8.15;;
53833;SDS011;39735;51.432;5.482;2023-06-10T02:49:49;15.90;;;8.77;;
53833;SDS011;39735;51.432;5.482;2023-06-10T02:52:14;13.50;;;6.50;;
53833;SDS011;39735;51.432;5.482;2023-06-10T02:54:40;35.30;;;8.60;;
53833;SDS011;39735;51.432;5.482;2023-06-10T02:57:05;19.73;;;8.30;;
53833;SDS011;39735;51.432;5.482;2023-06-10T02:59:31;17.92;;;9.02;;
53833;SDS011;39735;51.432;5.482;2023-06-10T03:01:56;8.38;;;7.55;;
53833;SDS011;39735;51.432;5.482;2023-06-10T03:04:21;13.60;;;7.07;;
53833;SDS011;39735;51.432;5.482;2023-06-10T03:06:48;13.10;;;8.18;;
53833;SDS011;39735;51.432;5.482;2023-06-10T03:09:13;9.83;;;8.33;;
53833;SDS011;39735;51.432;5.482;2023-06-10T03:11:38;11.87;;;8.60;;
53833;SDS011;39735;51.432;5.482;2023-06-10T03:14:04;13.73;;;9.43;;
53833;SDS011;39735;51.432;5.482;2023-06-10T03:16:29;38.85;;;9.77;;
53833;SDS011;39735;51.432;5.482;2023-06-10T03:18:56;25.92;;;9.43;;
53833;SDS011;39735;51.432;5.482;2023-06-10T03:21:21;16.53;;;8.93;;
53833;SDS011;39735;51.432;5.482;2023-06-10T03:23:46;9.65;;;7.15;;
53833;SDS011;39735;51.432;5.482;2023-06-10T03:26:12;18.42;;;8.05;;
53833;SDS011;39735;51.432;5.482;2023-06-10T03:28:39;14.05;;;8.63;;
53833;SDS011;39735;51.432;5.482;2023-06-10T03:31:05;19.27;;;9.73;;
53833;SDS011;39735;51.432;5.482;2023-06-10T03:33:30;17.92;;;7.95;;
53833;SDS011;39735;51.432;5.482;2023-06-10T03:35:56;17.20;;;9.00;;
53833;SDS011;39735;51.432;5.482;2023-06-10T03:38:21;16.27;;;10.37;;
53833;SDS011;39735;51.432;5.482;2023-06-10T03:40:46;12.83;;;10.47;;
53833;SDS011;39735;51.432;5.482;2023-06-10T03:43:12;22.02;;;11.85;;
53833;SDS011;39735;51.432;5.482;2023-06-10T03:45:37;13.02;;;9.35;;
53833;SDS011;39735;51.432;5.482;2023-06-10T03:48:02;21.73;;;9.88;;
53833;SDS011;39735;51.432;5.482;2023-06-10T03:50:28;14.10;;;10.20;;
53833;SDS011;39735;51.432;5.482;2023-06-10T03:52:53;17.77;;;10.13;;
53833;SDS011;39735;51.432;5.482;2023-06-10T03:55:19;23.77;;;11.97;;
53833;SDS011;39735;51.432;5.482;2023-06-10T03:57:46;13.38;;;9.63;;
53833;SDS011;39735;51.432;5.482;2023-06-10T04:00:12;19.90;;;8.97;;
53833;SDS011;39735;51.432;5.482;2023-06-10T04:02:37;27.63;;;8.88;;
53833;SDS011;39735;51.432;5.482;2023-06-10T04:05:11;15.30;;;11.07;;
53833;SDS011;39735;51.432;5.482;2023-06-10T04:07:36;10.80;;;9.70;;
53833;SDS011;39735;51.432;5.482;2023-06-10T04:10:01;14.33;;;10.37;;
53833;SDS011;39735;51.432;5.482;2023-06-10T04:12:27;16.65;;;11.70;;
53833;SDS011;39735;51.432;5.482;2023-06-10T04:14:52;15.13;;;11.03;;
53833;SDS011;39735;51.432;5.482;2023-06-10T04:17:18;21.45;;;9.48;;
53833;SDS011;39735;51.432;5.482;2023-06-10T04:19:43;15.45;;;8.88;;
53833;SDS011;39735;51.432;5.482;2023-06-10T04:22:08;15.07;;;8.80;;
53833;SDS011;39735;51.432;5.482;2023-06-10T04:24:33;18.67;;;9.47;;
53833;SDS011;39735;51.432;5.482;2023-06-10T04:26:59;24.13;;;11.80;;
53833;SDS011;39735;51.432;5.482;2023-06-10T04:29:25;13.52;;;9.18;;
53833;SDS011;39735;51.432;5.482;2023-06-10T04:31:50;18.37;;;9.17;;
53833;SDS011;39735;51.432;5.482;2023-06-10T04:34:15;30.42;;;11.18;;
53833;SDS011;39735;51.432;5.482;2023-06-10T04:36:41;19.57;;;10.80;;
53833;SDS011;39735;51.432;5.482;2023-06-10T04:39:06;19.43;;;11.50;;
53833;SDS011;39735;51.432;5.482;2023-06-10T04:41:31;25.47;;;10.63;;
53833;SDS011;39735;51.432;5.482;2023-06-10T04:43:56;20.40;;;11.70;;
53833;SDS011;39735;51.432;5.482;2023-06-10T04:46:23;28.63;;;13.77;;
53833;SDS011;39735;51.432;5.482;2023-06-10T04:48:49;16.08;;;11.52;;
53833;SDS011;39735;51.432;5.482;2023-06-10T04:51:14;26.45;;;10.77;;
53833;SDS011;39735;51.432;5.482;2023-06-10T04:53:39;21.08;;;10.85;;
53833;SDS011;39735;51.432;5.482;2023-06-10T04:56:05;29.50;;;10.68;;
53833;SDS011;39735;51.432;5.482;2023-06-10T04:58:30;13.98;;;10.68;;
53833;SDS011;39735;51.432;5.482;2023-06-10T05:00:55;12.47;;;11.07;;
53833;SDS011;39735;51.432;5.482;2023-06-10T05:03:21;22.98;;;11.65;;
53833;SDS011;39735;51.432;5.482;2023-06-10T05:05:46;24.10;;;10.27;;
53833;SDS011;39735;51.432;5.482;2023-06-10T05:08:11;21.60;;;11.73;;
53833;SDS011;39735;51.432;5.482;2023-06-10T05:10:36;11.63;;;10.13;;
53833;SDS011;39735;51.432;5.482;2023-06-10T05:13:02;18.93;;;11.43;;
53833;SDS011;39735;51.432;5.482;2023-06-10T05:15:28;27.75;;;11.57;;
53833;SDS011;39735;51.432;5.482;2023-06-10T05:17:53;18.08;;;11.70;;
53833;SDS011;39735;51.432;5.482;2023-06-10T05:20:18;19.08;;;12.65;;
53833;SDS011;39735;51.432;5.482;2023-06-10T05:22:44;19.42;;;11.20;;
53833;SDS011;39735;51.432;5.482;2023-06-10T05:25:09;19.45;;;12.05;;
53833;SDS011;39735;51.432;5.482;2023-06-10T05:27:35;16.52;;;11.48;;
53833;SDS011;39735;51.432;5.482;2023-06-10T05:30:00;21.33;;;12.80;;
53833;SDS011;39735;51.432;5.482;2023-06-10T05:32:26;18.73;;;11.77;;
53833;SDS011;39735;51.432;5.482;2023-06-10T05:34:51;21.23;;;10.73;;
53833;SDS011;39735;51.432;5.482;2023-06-10T05:37:16;17.77;;;11.43;;
53833;SDS011;39735;51.432;5.482;2023-06-10T05:39:41;22.53;;;12.17;;
53833;SDS011;39735;51.432;5.482;2023-06-10T05:42:07;20.00;;;11.80;;
53833;SDS011;39735;51.432;5.482;2023-06-10T05:44:33;18.27;;;11.13;;
53833;SDS011;39735;51.432;5.482;2023-06-10T05:46:58;19.20;;;10.98;;
53833;SDS011;39735;51.432;5.482;2023-06-10T05:49:23;14.82;;;12.38;;
53833;SDS011;39735;51.432;5.482;2023-06-10T05:51:49;28.98;;;11.60;;
53833;SDS011;39735;51.432;5.482;2023-06-10T05:54:14;26.88;;;11.30;;
53833;SDS011;39735;51.432;5.482;2023-06-10T05:56:39;13.52;;;11.57;;
53833;SDS011;39735;51.432;5.482;2023-06-10T05:59:05;20.00;;;11.10;;
53833;SDS011;39735;51.432;5.482;2023-06-10T06:01:30;12.13;;;10.70;;
53833;SDS011;39735;51.432;5.482;2023-06-10T06:03:55;43.20;;;13.50;;
53833;SDS011;39735;51.432;5.482;2023-06-10T06:06:20;27.97;;;10.47;;
53833;SDS011;39735;51.432;5.482;2023-06-10T06:08:46;28.33;;;11.03;;
53833;SDS011;39735;51.432;5.482;2023-06-10T06:11:11;15.02;;;11.15;;
53833;SDS011;39735;51.432;5.482;2023-06-10T06:13:36;30.43;;;11.40;;
53833;SDS011;39735;51.432;5.482;2023-06-10T06:16:01;26.87;;;14.10;;
53833;SDS011;39735;51.432;5.482;2023-06-10T06:18:27;17.38;;;12.63;;
53833;SDS011;39735;51.432;5.482;2023-06-10T06:20:52;26.27;;;12.57;;
53833;SDS011;39735;51.432;5.482;2023-06-10T06:23:17;20.43;;;10.70;;
53833;SDS011;39735;51.432;5.482;2023-06-10T06:25:42;27.95;;;12.98;;
53833;SDS011;39735;51.432;5.482;2023-06-10T06:28:09;22.13;;;14.02;;
53833;SDS011;39735;51.432;5.482;2023-06-10T06:30:34;25.75;;;10.77;;
53833;SDS011;39735;51.432;5.482;2023-06-10T06:33:00;23.15;;;11.15;;
53833;SDS011;39735;51.432;5.482;2023-06-10T06:35:25;17.67;;;11.40;;
53833;SDS011;39735;51.432;5.482;2023-06-10T06:37:50;25.37;;;11.33;;
53833;SDS011;39735;51.432;5.482;2023-06-10T06:40:16;23.80;;;10.13;;
53833;SDS011;39735;51.432;5.482;2023-06-10T06:42:41;23.00;;;11.10;;
53833;SDS011;39735;51.432;5.482;2023-06-10T06:45:06;28.92;;;10.20;;
53833;SDS011;39735;51.432;5.482;2023-06-10T06:47:32;21.05;;;12.30;;
53833;SDS011;39735;51.432;5.482;2023-06-10T06:49:57;35.40;;;10.23;;
53833;SDS011;39735;51.432;5.482;2023-06-10T06:52:22;22.92;;;12.02;;
53833;SDS011;39735;51.432;5.482;2023-06-10T06:54:47;38.75;;;12.73;;
53833;SDS011;39735;51.432;5.482;2023-06-10T06:57:13;23.08;;;10.45;;
53833;SDS011;39735;51.432;5.482;2023-06-10T06:59:38;17.13;;;12.10;;
53833;SDS011;39735;51.432;5.482;2023-06-10T07:02:03;22.10;;;10.13;;
53833;SDS011;39735;51.432;5.482;2023-06-10T07:04:28;13.80;;;9.45;;
53833;SDS011;39735;51.432;5.482;2023-06-10T07:06:54;34.80;;;9.90;;
53833;SDS011;39735;51.432;5.482;2023-06-10T07:09:19;17.92;;;9.82;;
53833;SDS011;39735;51.432;5.482;2023-06-10T07:11:44;15.00;;;10.50;;
53833;SDS011;39735;51.432;5.482;2023-06-10T07:14:09;18.63;;;10.40;;
53833;SDS011;39735;51.432;5.482;2023-06-10T07:16:35;16.60;;;9.43;;
53833;SDS011;39735;51.432;5.482;2023-06-10T07:19:00;16.60;;;9.77;;
53833;SDS011;39735;51.432;5.482;2023-06-10T07:21:25;11.77;;;10.03;;
53833;SDS011;39735;51.432;5.482;2023-06-10T07:23:50;42.85;;;11.63;;
53833;SDS011;39735;51.432;5.482;2023-06-10T07:26:18;13.45;;;8.70;;
53833;SDS011;39735;51.432;5.482;2023-06-10T07:28:44;25.20;;;10.55;;
53833;SDS011;39735;51.432;5.482;2023-06-10T07:31:09;29.75;;;11.02;;
53833;SDS011;39735;51.432;5.482;2023-06-10T07:33:36;17.38;;;10.43;;
53833;SDS011;39735;51.432;5.482;2023-06-10T07:36:03;17.92;;;9.30;;
53833;SDS011;39735;51.432;5.482;2023-06-10T07:38:28;23.65;;;10.35;;
53833;SDS011;39735;51.432;5.482;2023-06-10T07:40:53;19.75;;;8.75;;
53833;SDS011;39735;51.432;5.482;2023-06-10T07:43:18;17.93;;;10.00;;
53833;SDS011;39735;51.432;5.482;2023-06-10T07:45:44;20.83;;;10.90;;
53833;SDS011;39735;51.432;5.482;2023-06-10T07:48:10;11.15;;;7.78;;
53833;SDS011;39735;51.432;5.482;2023-06-10T07:50:35;29.00;;;9.93;;
53833;SDS011;39735;51.432;5.482;2023-06-10T07:53:00;28.35;;;8.65;;
53833;SDS011;39735;51.432;5.482;2023-06-10T07:55:25;19.52;;;9.35;;
53833;SDS011;39735;51.432;5.482;2023-06-10T07:57:51;26.23;;;10.48;;
53833;SDS011;39735;51.432;5.482;2023-06-10T08:00:17;12.27;;;8.40;;
53833;SDS011;39735;51.432;5.482;2023-06-10T08:02:42;20.08;;;8.93;;
53833;SDS011;39735;51.432;5.482;2023-06-10T08:05:07;24.92;;;11.85;;
53833;SDS011;39735;51.432;5.482;2023-06-10T08:07:33;28.50;;;9.82;;
53833;SDS011;39735;51.432;5.482;2023-06-10T08:09:58;22.40;;;8.83;;
53833;SDS011;39735;51.432;5.482;2023-06-10T08:12:23;13.65;;;7.95;;
53833;SDS011;39735;51.432;5.482;2023-06-10T08:14:48;17.58;;;9.10;;
53833;SDS011;39735;51.432;5.482;2023-06-10T08:17:14;21.70;;;8.77;;
53833;SDS011;39735;51.432;5.482;2023-06-10T08:19:39;13.10;;;8.13;;
53833;SDS011;39735;51.432;5.482;2023-06-10T08:22:04;20.00;;;7.73;;
53833;SDS011;39735;51.432;5.482;2023-06-10T08:24:30;20.35;;;8.65;;
53833;SDS011;39735;51.432;5.482;2023-06-10T08:26:55;27.63;;;10.30;;
53833;SDS011;39735;51.432;5.482;2023-06-10T08:29:22;29.42;;;7.55;;
53833;SDS011;39735;51.432;5.482;2023-06-10T08:31:47;32.35;;;8.50;;
53833;SDS011;39735;51.432;5.482;2023-06-10T08:34:12;14.50;;;8.73;;
53833;SDS011;39735;51.432;5.482;2023-06-10T08:36:37;24.58;;;7.28;;
53833;SDS011;39735;51.432;5.482;2023-06-10T08:39:03;19.23;;;7.78;;
53833;SDS011;39735;51.432;5.482;2023-06-10T08:41:28;8.85;;;6.20;;
53833;SDS011;39735;51.432;5.482;2023-06-10T08:46:39;22.08;;;7.03;;
53833;SDS011;39735;51.432;5.482;2023-06-10T08:49:08;18.50;;;8.13;;
53833;SDS011;39735;51.432;5.482;2023-06-10T08:51:34;17.42;;;7.05;;
53833;SDS011;39735;51.432;5.482;2023-06-10T08:54:05;17.45;;;7.65;;
53833;SDS011;39735;51.432;5.482;2023-06-10T08:56:36;12.68;;;7.22;;
53833;SDS011;39735;51.432;5.482;2023-06-10T08:59:03;31.33;;;8.75;;
53833;SDS011;39735;51.432;5.482;2023-06-10T09:01:28;17.47;;;8.33;;
53833;SDS011;39735;51.432;5.482;2023-06-10T09:03:54;14.80;;;7.60;;
53833;SDS011;39735;51.432;5.482;2023-06-10T09:06:19;30.02;;;6.55;;
53833;SDS011;39735;51.432;5.482;2023-06-10T09:08:45;17.60;;;7.10;;
53833;SDS011;39735;51.432;5.482;2023-06-10T09:11:10;9.13;;;5.95;;
53833;SDS011;39735;51.432;5.482;2023-06-10T09:13:35;32.80;;;9.43;;
53833;SDS011;39735;51.432;5.482;2023-06-10T09:16:01;20.60;;;7.37;;
53833;SDS011;39735;51.432;5.482;2023-06-10T09:18:27;25.77;;;8.43;;
53833;SDS011;39735;51.432;5.482;2023-06-10T09:20:53;12.38;;;6.05;;
53833;SDS011;39735;51.432;5.482;2023-06-10T09:23:18;18.73;;;7.05;;
53833;SDS011;39735;51.432;5.482;2023-06-10T09:25:43;16.40;;;6.40;;
53833;SDS011;39735;51.432;5.482;2023-06-10T09:28:12;18.45;;;7.22;;
53833;SDS011;39735;51.432;5.482;2023-06-10T09:30:38;14.48;;;6.70;;
53833;SDS011;39735;51.432;5.482;2023-06-10T09:33:09;12.05;;;6.57;;
53833;SDS011;39735;51.432;5.482;2023-06-10T09:35:34;31.58;;;6.57;;
53833;SDS011;39735;51.432;5.482;2023-06-10T09:38:00;29.50;;;6.53;;
53833;SDS011;39735;51.432;5.482;2023-06-10T09:40:25;18.77;;;8.75;;
53833;SDS011;39735;51.432;5.482;2023-06-10T09:42:54;10.57;;;6.03;;
53833;SDS011;39735;51.432;5.482;2023-06-10T09:45:20;18.40;;;6.18;;
53833;SDS011;39735;51.432;5.482;2023-06-10T09:47:46;18.52;;;5.82;;
53833;SDS011;39735;51.432;5.482;2023-06-10T09:50:12;19.48;;;5.57;;
53833;SDS011;39735;51.432;5.482;2023-06-10T09:52:37;20.40;;;6.60;;
53833;SDS011;39735;51.432;5.482;2023-06-10T09:55:04;12.60;;;6.95;;
53833;SDS011;39735;51.432;5.482;2023-06-10T09:57:32;26.98;;;5.68;;
53833;SDS011;39735;51.432;5.482;2023-06-10T10:00:09;15.07;;;6.03;;
53833;SDS011;39735;51.432;5.482;2023-06-10T10:02:45;9.65;;;6.22;;
53833;SDS011;39735;51.432;5.482;2023-06-10T10:05:12;14.23;;;6.28;;
53833;SDS011;39735;51.432;5.482;2023-06-10T10:07:38;10.70;;;6.68;;
53833;SDS011;39735;51.432;5.482;2023-06-10T10:10:03;7.97;;;6.33;;
53833;SDS011;39735;51.432;5.482;2023-06-10T10:12:28;21.35;;;7.05;;
53833;SDS011;39735;51.432;5.482;2023-06-10T10:14:54;13.73;;;7.68;;
53833;SDS011;39735;51.432;5.482;2023-06-10T10:17:20;7.30;;;5.88;;
53833;SDS011;39735;51.432;5.482;2023-06-10T10:19:56;9.18;;;6.88;;
53833;SDS011;39735;51.432;5.482;2023-06-10T10:22:26;19.70;;;6.63;;
53833;SDS011;39735;51.432;5.482;2023-06-10T10:24:57;12.90;;;6.82;;
53833;SDS011;39735;51.432;5.482;2023-06-10T10:27:28;11.63;;;5.88;;
53833;SDS011;39735;51.432;5.482;2023-06-10T10:29:54;14.82;;;8.05;;
53833;SDS011;39735;51.432;5.482;2023-06-10T10:32:21;15.25;;;5.82;;
53833;SDS011;39735;51.432;5.482;2023-06-10T10:34:57;6.88;;;5.82;;
53833;SDS011;39735;51.432;5.482;2023-06-10T10:37:26;22.75;;;6.25;;
53833;SDS011;39735;51.432;5.482;2023-06-10T10:39:51;9.70;;;5.95;;
53833;SDS011;39735;51.432;5.482;2023-06-10T10:42:17;13.35;;;6.18;;
53833;SDS011;39735;51.432;5.482;2023-06-10T10:44:43;19.05;;;6.47;;
53833;SDS011;39735;51.432;5.482;2023-06-10T10:47:08;20.73;;;6.38;;
53833;SDS011;39735;51.432;5.482;2023-06-10T10:49:35;21.80;;;6.88;;
53833;SDS011;39735;51.432;5.482;2023-06-10T10:52:01;15.07;;;6.78;;
53833;SDS011;39735;51.432;5.482;2023-06-10T10:59:58;11.70;;;5.78;;
53833;SDS011;39735;51.432;5.482;2023-06-10T11:04:58;16.08;;;7.50;;
53833;SDS011;39735;51.432;5.482;2023-06-10T11:07:24;7.85;;;5.97;;
53833;SDS011;39735;51.432;5.482;2023-06-10T11:09:59;13.93;;;7.10;;
53833;SDS011;39735;51.432;5.482;2023-06-10T11:15:08;10.30;;;5.93;;
53833;SDS011;39735;51.432;5.482;2023-06-10T11:17:34;8.02;;;6.13;;
53833;SDS011;39735;51.432;5.482;2023-06-10T11:19:59;15.88;;;6.25;;
53833;SDS011;39735;51.432;5.482;2023-06-10T11:22:25;25.42;;;6.68;;
53833;SDS011;39735;51.432;5.482;2023-06-10T11:24:50;8.15;;;6.22;;
53833;SDS011;39735;51.432;5.482;2023-06-10T11:27:22;13.50;;;6.82;;
53833;SDS011;39735;51.432;5.482;2023-06-10T11:32:33;8.05;;;6.68;;
53833;SDS011;39735;51.432;5.482;2023-06-10T11:34:59;9.73;;;5.32;;
53833;SDS011;39735;51.432;5.482;2023-06-10T11:37:25;6.50;;;5.93;;
53833;SDS011;39735;51.432;5.482;2023-06-10T11:39:53;24.73;;;6.40;;
53833;SDS011;39735;51.432;5.482;2023-06-10T11:42:19;6.32;;;5.82;;
53833;SDS011;39735;51.432;5.482;2023-06-10T11:44:52;9.82;;;6.38;;
53833;SDS011;39735;51.432;5.482;2023-06-10T11:47:17;16.40;;;6.25;;
53833;SDS011;39735;51.432;5.482;2023-06-10T11:49:43;32.85;;;6.57;;
53833;SDS011;39735;51.432;5.482;2023-06-10T11:52:08;20.63;;;7.85;;
53833;SDS011;39735;51.432;5.482;2023-06-10T11:54:33;6.32;;;5.72;;
53833;SDS011;39735;51.432;5.482;2023-06-10T11:56:59;21.43;;;6.87;;
53833;SDS011;39735;51.432;5.482;2023-06-10T11:59:28;18.60;;;7.00;;
53833;SDS011;39735;51.432;5.482;2023-06-10T12:01:53;13.43;;;6.20;;
53833;SDS011;39735;51.432;5.482;2023-06-10T12:04:19;11.90;;;5.75;;
53833;SDS011;39735;51.432;5.482;2023-06-10T12:06:45;6.25;;;5.57;;
53833;SDS011;39735;51.432;5.482;2023-06-10T12:11:43;11.95;;;6.10;;
53833;SDS011;39735;51.432;5.482;2023-06-10T12:14:09;7.85;;;5.25;;
53833;SDS011;39735;51.432;5.482;2023-06-10T12:16:34;8.38;;;5.68;;
53833;SDS011;39735;51.432;5.482;2023-06-10T12:19:03;26.00;;;6.18;;
53833;SDS011;39735;51.432;5.482;2023-06-10T12:21:29;17.38;;;7.30;;
53833;SDS011;39735;51.432;5.482;2023-06-10T12:24:27;14.45;;;5.47;;
53833;SDS011;39735;51.432;5.482;2023-06-10T12:26:45;10.15;;;5.90;;
53833;SDS011;39735;51.432;5.482;2023-06-10T12:32:03;6.10;;;5.45;;
53833;SDS011;39735;51.432;5.482;2023-06-10T12:34:34;19.05;;;6.03;;
53833;SDS011;39735;51.432;5.482;2023-06-10T12:37:07;13.55;;;5.35;;
53833;SDS011;39735;51.432;5.482;2023-06-10T12:39:39;14.50;;;5.30;;
53833;SDS011;39735;51.432;5.482;2023-06-10T12:42:04;13.45;;;7.13;;
53833;SDS011;39735;51.432;5.482;2023-06-10T12:44:34;15.65;;;6.32;;
53833;SDS011;39735;51.432;5.482;2023-06-10T12:47:00;5.05;;;4.70;;
53833;SDS011;39735;51.432;5.482;2023-06-10T12:49:25;18.10;;;6.88;;
53833;SDS011;39735;51.432;5.482;2023-06-10T12:51:51;18.02;;;5.80;;
53833;SDS011;39735;51.432;5.482;2023-06-10T12:54:16;12.07;;;6.00;;
53833;SDS011;39735;51.432;5.482;2023-06-10T12:56:42;6.83;;;6.23;;
53833;SDS011;39735;51.432;5.482;2023-06-10T12:59:07;14.63;;;6.37;;
53833;SDS011;39735;51.432;5.482;2023-06-10T13:01:32;18.70;;;5.33;;
53833;SDS011;39735;51.432;5.482;2023-06-10T13:03:58;9.35;;;5.05;;
53833;SDS011;39735;51.432;5.482;2023-06-10T13:06:23;8.38;;;5.22;;
53833;SDS011;39735;51.432;5.482;2023-06-10T13:08:49;10.35;;;6.07;;
53833;SDS011;39735;51.432;5.482;2023-06-10T13:11:15;11.80;;;5.22;;
53833;SDS011;39735;51.432;5.482;2023-06-10T13:13:41;11.48;;;5.57;;
53833;SDS011;39735;51.432;5.482;2023-06-10T13:16:06;7.60;;;6.70;;
53833;SDS011;39735;51.432;5.482;2023-06-10T13:18:32;5.18;;;4.72;;
53833;SDS011;39735;51.432;5.482;2023-06-10T13:21:02;10.25;;;6.10;;
53833;SDS011;39735;51.432;5.482;2023-06-10T13:23:28;7.50;;;4.57;;
53833;SDS011;39735;51.432;5.482;2023-06-10T13:25:53;19.87;;;5.57;;
53833;SDS011;39735;51.432;5.482;2023-06-10T13:28:18;9.93;;;5.47;;
53833;SDS011;39735;51.432;5.482;2023-06-10T13:30:44;27.42;;;5.50;;
53833;SDS011;39735;51.432;5.482;2023-06-10T13:33:09;6.37;;;5.23;;
53833;SDS011;39735;51.432;5.482;2023-06-10T13:35:34;15.82;;;7.93;;
53833;SDS011;39735;51.432;5.482;2023-06-10T13:37:59;8.87;;;5.30;;
53833;SDS011;39735;51.432;5.482;2023-06-10T13:40:25;16.98;;;5.43;;
53833;SDS011;39735;51.432;5.482;2023-06-10T13:42:50;9.00;;;5.83;;
53833;SDS011;39735;51.432;5.482;2023-06-10T13:45:17;6.45;;;4.97;;
53833;SDS011;39735;51.432;5.482;2023-06-10T13:47:42;10.98;;;5.00;;
53833;SDS011;39735;51.432;5.482;2023-06-10T13:50:08;29.70;;;6.00;;
53833;SDS011;39735;51.432;5.482;2023-06-10T13:52:33;20.45;;;5.57;;
53833;SDS011;39735;51.432;5.482;2023-06-10T13:54:58;6.82;;;6.07;;
53833;SDS011;39735;51.432;5.482;2023-06-10T13:57:24;14.03;;;5.70;;
53833;SDS011;39735;51.432;5.482;2023-06-10T13:59:49;5.88;;;5.53;;
53833;SDS011;39735;51.432;5.482;2023-06-10T14:02:14;7.13;;;5.68;;
53833;SDS011;39735;51.432;5.482;2023-06-10T14:04:40;14.47;;;5.90;;
53833;SDS011;39735;51.432;5.482;2023-06-10T14:07:05;21.20;;;6.00;;
53833;SDS011;39735;51.432;5.482;2023-06-10T14:09:30;9.45;;;6.38;;
53833;SDS011;39735;51.432;5.482;2023-06-10T14:11:55;10.80;;;5.63;;
53833;SDS011;39735;51.432;5.482;2023-06-10T14:14:21;17.92;;;5.78;;
53833;SDS011;39735;51.432;5.482;2023-06-10T14:16:47;12.63;;;5.63;;
53833;SDS011;39735;51.432;5.482;2023-06-10T14:19:13;5.60;;;5.13;;
53833;SDS011;39735;51.432;5.482;2023-06-10T14:21:38;6.67;;;6.17;;
53833;SDS011;39735;51.432;5.482;2023-06-10T14:24:03;12.67;;;5.43;;
53833;SDS011;39735;51.432;5.482;2023-06-10T14:26:28;12.35;;;5.45;;
53833;SDS011;39735;51.432;5.482;2023-06-10T14:28:54;9.13;;;5.22;;
53833;SDS011;39735;51.432;5.482;2023-06-10T14:31:19;28.48;;;6.15;;
53833;SDS011;39735;51.432;5.482;2023-06-10T14:33:44;12.80;;;5.10;;
53833;SDS011;39735;51.432;5.482;2023-06-10T14:36:10;7.93;;;5.50;;
53833;SDS011;39735;51.432;5.482;2023-06-10T14:38:35;9.30;;;5.03;;
53833;SDS011;39735;51.432;5.482;2023-06-10T14:41:01;17.03;;;6.30;;
53833;SDS011;39735;51.432;5.482;2023-06-10T14:43:27;20.85;;;6.40;;
53833;SDS011;39735;51.432;5.482;2023-06-10T14:45:52;5.93;;;5.30;;
53833;SDS011;39735;51.432;5.482;2023-06-10T14:48:17;5.90;;;5.40;;
53833;SDS011;39735;51.432;5.482;2023-06-10T14:50:43;9.13;;;6.53;;
53833;SDS011;39735;51.432;5.482;2023-06-10T14:53:11;9.23;;;5.75;;